sensor_id;sensor_type;location;lat;lon;timestamp;P1;durP1;ratioP1;P2;durP2;ratioP2
18754;SDS011;35061;47.664;9.166;2023-11-21T00:00:04;3.20;;;1.30;;
18754;SDS011;35061;47.664;9.166;2023-11-21T00:02:40;4.82;;;1.52;;
18754;SDS011;35061;47.664;9.166;2023-11-21T00:05:09;2.17;;;1.10;;
18754;SDS011;35061;47.664;9.166;2023-11-21T00:07:38;5.78;;;2.22;;
18754;SDS011;35061;47.664;9.166;2023-11-21T00:10:07;5.45;;;1.80;;
18754;SDS011;35061;47.664;9.166;2023-11-21T00:12:36;3.80;;;1.52;;
18754;SDS011;35061;47.664;9.166;2023-11-21T00:15:05;3.25;;;1.42;;
18754;SDS011;35061;47.664;9.166;2023-11-21T00:17:33;3.90;;;1.83;;
18754;SDS011;35061;47.664;9.166;2023-11-21T00:20:02;3.58;;;1.52;;
18754;SDS011;35061;47.664;9.166;2023-11-21T00:22:34;2.53;;;1.60;;
18754;SDS011;35061;47.664;9.166;2023-11-21T00:25:03;3.17;;;1.27;;
18754;SDS011;35061;47.664;9.166;2023-11-21T00:27:31;3.47;;;1.40;;
18754;SDS011;35061;47.664;9.166;2023-11-21T00:29:59;5.80;;;1.80;;
18754;SDS011;35061;47.664;9.166;2023-11-21T00:32:27;4.72;;;1.85;;
18754;SDS011;35061;47.664;9.166;2023-11-21T00:34:56;2.95;;;1.33;;
18754;SDS011;35061;47.664;9.166;2023-11-21T00:37:24;2.55;;;1.75;;
18754;SDS011;35061;47.664;9.166;2023-11-21T00:39:54;2.75;;;1.55;;
18754;SDS011;35061;47.664;9.166;2023-11-21T00:42:23;3.45;;;1.40;;
18754;SDS011;35061;47.664;9.166;2023-11-21T00:44:51;3.75;;;1.40;;
18754;SDS011;35061;47.664;9.166;2023-11-21T00:47:19;3.80;;;1.37;;
18754;SDS011;35061;47.664;9.166;2023-11-21T00:49:47;7.25;;;1.70;;
18754;SDS011;35061;47.664;9.166;2023-11-21T00:52:16;4.75;;;2.28;;
18754;SDS011;35061;47.664;9.166;2023-11-21T00:54:45;3.75;;;1.80;;
18754;SDS011;35061;47.664;9.166;2023-11-21T00:57:15;2.92;;;1.40;;
18754;SDS011;35061;47.664;9.166;2023-11-21T00:59:43;5.28;;;1.37;;
18754;SDS011;35061;47.664;9.166;2023-11-21T01:02:11;6.50;;;1.70;;
18754;SDS011;35061;47.664;9.166;2023-11-21T01:04:39;4.47;;;1.15;;
18754;SDS011;35061;47.664;9.166;2023-11-21T01:07:07;3.55;;;1.33;;
18754;SDS011;35061;47.664;9.166;2023-11-21T01:09:35;4.35;;;1.40;;
18754;SDS011;35061;47.664;9.166;2023-11-21T01:12:03;3.00;;;1.37;;
18754;SDS011;35061;47.664;9.166;2023-11-21T01:14:31;1.80;;;0.90;;
18754;SDS011;35061;47.664;9.166;2023-11-21T01:16:59;2.30;;;1.10;;
18754;SDS011;35061;47.664;9.166;2023-11-21T01:19:27;3.67;;;1.40;;
18754;SDS011;35061;47.664;9.166;2023-11-21T01:21:56;2.83;;;1.67;;
18754;SDS011;35061;47.664;9.166;2023-11-21T01:24:25;3.40;;;1.42;;
18754;SDS011;35061;47.664;9.166;2023-11-21T01:26:53;1.62;;;1.27;;
18754;SDS011;35061;47.664;9.166;2023-11-21T01:29:21;3.78;;;1.45;;
18754;SDS011;35061;47.664;9.166;2023-11-21T01:31:49;4.40;;;1.40;;
18754;SDS011;35061;47.664;9.166;2023-11-21T01:34:17;3.05;;;1.60;;
18754;SDS011;35061;47.664;9.166;2023-11-21T01:36:45;3.67;;;1.23;;
18754;SDS011;35061;47.664;9.166;2023-11-21T01:39:15;5.12;;;1.08;;
18754;SDS011;35061;47.664;9.166;2023-11-21T01:41:45;6.85;;;1.50;;
18754;SDS011;35061;47.664;9.166;2023-11-21T01:44:13;4.07;;;1.52;;
18754;SDS011;35061;47.664;9.166;2023-11-21T01:46:41;1.98;;;1.12;;
18754;SDS011;35061;47.664;9.166;2023-11-21T01:49:09;2.00;;;1.10;;
18754;SDS011;35061;47.664;9.166;2023-11-21T01:51:41;4.68;;;1.20;;
18754;SDS011;35061;47.664;9.166;2023-11-21T01:54:11;3.53;;;1.45;;
18754;SDS011;35061;47.664;9.166;2023-11-21T01:56:46;1.40;;;1.10;;
18754;SDS011;35061;47.664;9.166;2023-11-21T01:59:16;1.55;;;1.25;;
18754;SDS011;35061;47.664;9.166;2023-11-21T02:01:48;3.15;;;1.10;;
18754;SDS011;35061;47.664;9.166;2023-11-21T02:04:18;3.92;;;1.10;;
18754;SDS011;35061;47.664;9.166;2023-11-21T02:06:46;2.47;;;1.10;;
18754;SDS011;35061;47.664;9.166;2023-11-21T02:09:14;5.47;;;1.10;;
18754;SDS011;35061;47.664;9.166;2023-11-21T02:11:43;1.27;;;1.17;;
18754;SDS011;35061;47.664;9.166;2023-11-21T02:14:11;1.62;;;1.20;;
18754;SDS011;35061;47.664;9.166;2023-11-21T02:16:41;4.35;;;1.40;;
18754;SDS011;35061;47.664;9.166;2023-11-21T02:19:09;3.08;;;1.10;;
18754;SDS011;35061;47.664;9.166;2023-11-21T02:21:41;2.00;;;1.17;;
18754;SDS011;35061;47.664;9.166;2023-11-21T02:24:10;1.83;;;0.95;;
18754;SDS011;35061;47.664;9.166;2023-11-21T02:26:38;3.05;;;1.35;;
18754;SDS011;35061;47.664;9.166;2023-11-21T02:29:06;4.68;;;1.08;;
18754;SDS011;35061;47.664;9.166;2023-11-21T02:31:38;2.47;;;1.00;;
18754;SDS011;35061;47.664;9.166;2023-11-21T02:34:15;1.50;;;0.88;;
18754;SDS011;35061;47.664;9.166;2023-11-21T02:36:44;2.85;;;1.30;;
18754;SDS011;35061;47.664;9.166;2023-11-21T02:39:12;6.12;;;1.23;;
18754;SDS011;35061;47.664;9.166;2023-11-21T02:41:40;2.50;;;1.00;;
18754;SDS011;35061;47.664;9.166;2023-11-21T02:44:08;2.28;;;0.95;;
18754;SDS011;35061;47.664;9.166;2023-11-21T02:46:37;2.60;;;0.75;;
18754;SDS011;35061;47.664;9.166;2023-11-21T02:49:07;4.30;;;1.00;;
18754;SDS011;35061;47.664;9.166;2023-11-21T02:51:35;1.10;;;0.90;;
18754;SDS011;35061;47.664;9.166;2023-11-21T02:54:03;1.08;;;1.00;;
18754;SDS011;35061;47.664;9.166;2023-11-21T02:56:34;1.62;;;1.02;;
18754;SDS011;35061;47.664;9.166;2023-11-21T02:59:02;0.85;;;0.60;;
18754;SDS011;35061;47.664;9.166;2023-11-21T03:01:30;0.85;;;0.85;;
18754;SDS011;35061;47.664;9.166;2023-11-21T03:03:58;2.22;;;0.73;;
18754;SDS011;35061;47.664;9.166;2023-11-21T03:06:26;1.65;;;0.90;;
18754;SDS011;35061;47.664;9.166;2023-11-21T03:08:54;1.62;;;0.77;;
18754;SDS011;35061;47.664;9.166;2023-11-21T03:11:23;2.37;;;0.90;;
18754;SDS011;35061;47.664;9.166;2023-11-21T03:13:51;1.55;;;0.88;;
18754;SDS011;35061;47.664;9.166;2023-11-21T03:16:19;2.83;;;1.30;;
18754;SDS011;35061;47.664;9.166;2023-11-21T03:18:47;1.92;;;0.70;;
18754;SDS011;35061;47.664;9.166;2023-11-21T03:21:15;4.05;;;1.17;;
18754;SDS011;35061;47.664;9.166;2023-11-21T03:23:42;1.48;;;0.95;;
18754;SDS011;35061;47.664;9.166;2023-11-21T03:26:13;3.30;;;1.40;;
18754;SDS011;35061;47.664;9.166;2023-11-21T03:28:41;2.25;;;0.90;;
18754;SDS011;35061;47.664;9.166;2023-11-21T03:31:09;1.87;;;1.02;;
18754;SDS011;35061;47.664;9.166;2023-11-21T03:33:38;2.97;;;1.08;;
18754;SDS011;35061;47.664;9.166;2023-11-21T03:36:06;2.87;;;0.88;;
18754;SDS011;35061;47.664;9.166;2023-11-21T03:38:35;1.77;;;0.80;;
18754;SDS011;35061;47.664;9.166;2023-11-21T03:41:03;3.17;;;0.77;;
18754;SDS011;35061;47.664;9.166;2023-11-21T03:43:32;1.77;;;1.10;;
18754;SDS011;35061;47.664;9.166;2023-11-21T03:46:00;2.33;;;0.80;;
18754;SDS011;35061;47.664;9.166;2023-11-21T03:48:28;1.17;;;0.80;;
18754;SDS011;35061;47.664;9.166;2023-11-21T03:50:58;2.15;;;0.75;;
18754;SDS011;35061;47.664;9.166;2023-11-21T03:53:26;1.30;;;0.70;;
18754;SDS011;35061;47.664;9.166;2023-11-21T03:55:54;3.10;;;1.05;;
18754;SDS011;35061;47.664;9.166;2023-11-21T03:58:22;1.42;;;0.82;;
18754;SDS011;35061;47.664;9.166;2023-11-21T04:00:50;1.62;;;0.80;;
18754;SDS011;35061;47.664;9.166;2023-11-21T04:03:18;1.75;;;0.70;;
18754;SDS011;35061;47.664;9.166;2023-11-21T04:05:47;1.58;;;0.75;;
18754;SDS011;35061;47.664;9.166;2023-11-21T04:08:15;2.03;;;0.77;;
18754;SDS011;35061;47.664;9.166;2023-11-21T04:10:43;1.58;;;0.80;;
18754;SDS011;35061;47.664;9.166;2023-11-21T04:13:12;2.45;;;0.90;;
18754;SDS011;35061;47.664;9.166;2023-11-21T04:15:40;3.45;;;1.45;;
18754;SDS011;35061;47.664;9.166;2023-11-21T04:18:08;1.65;;;0.70;;
18754;SDS011;35061;47.664;9.166;2023-11-21T04:20:36;3.37;;;1.00;;
18754;SDS011;35061;47.664;9.166;2023-11-21T04:23:04;1.37;;;0.80;;
18754;SDS011;35061;47.664;9.166;2023-11-21T04:25:32;1.27;;;0.70;;
18754;SDS011;35061;47.664;9.166;2023-11-21T04:28:00;2.70;;;0.90;;
18754;SDS011;35061;47.664;9.166;2023-11-21T04:30:28;1.67;;;0.60;;
18754;SDS011;35061;47.664;9.166;2023-11-21T04:32:56;1.92;;;0.90;;
18754;SDS011;35061;47.664;9.166;2023-11-21T04:35:24;2.03;;;0.70;;
18754;SDS011;35061;47.664;9.166;2023-11-21T04:37:52;1.50;;;0.93;;
18754;SDS011;35061;47.664;9.166;2023-11-21T04:40:20;1.67;;;0.77;;
18754;SDS011;35061;47.664;9.166;2023-11-21T04:42:48;1.70;;;0.90;;
18754;SDS011;35061;47.664;9.166;2023-11-21T04:45:16;1.70;;;1.00;;
18754;SDS011;35061;47.664;9.166;2023-11-21T04:47:44;1.17;;;0.80;;
18754;SDS011;35061;47.664;9.166;2023-11-21T04:50:12;2.17;;;1.33;;
18754;SDS011;35061;47.664;9.166;2023-11-21T04:52:41;1.77;;;0.80;;
18754;SDS011;35061;47.664;9.166;2023-11-21T04:55:09;1.65;;;0.90;;
18754;SDS011;35061;47.664;9.166;2023-11-21T04:57:37;2.22;;;1.02;;
18754;SDS011;35061;47.664;9.166;2023-11-21T05:00:08;1.45;;;1.08;;
18754;SDS011;35061;47.664;9.166;2023-11-21T05:02:38;2.08;;;1.00;;
18754;SDS011;35061;47.664;9.166;2023-11-21T05:05:07;0.82;;;0.82;;
18754;SDS011;35061;47.664;9.166;2023-11-21T05:07:38;1.60;;;0.90;;
18754;SDS011;35061;47.664;9.166;2023-11-21T05:10:16;1.37;;;0.80;;
18754;SDS011;35061;47.664;9.166;2023-11-21T05:12:44;3.65;;;1.00;;
18754;SDS011;35061;47.664;9.166;2023-11-21T05:15:17;0.95;;;0.80;;
18754;SDS011;35061;47.664;9.166;2023-11-21T05:17:48;1.77;;;0.80;;
18754;SDS011;35061;47.664;9.166;2023-11-21T05:20:22;2.58;;;0.80;;
18754;SDS011;35061;47.664;9.166;2023-11-21T05:22:56;1.65;;;0.82;;
18754;SDS011;35061;47.664;9.166;2023-11-21T05:25:26;2.62;;;0.80;;
18754;SDS011;35061;47.664;9.166;2023-11-21T05:27:58;2.15;;;0.70;;
18754;SDS011;35061;47.664;9.166;2023-11-21T05:30:28;1.65;;;0.95;;
18754;SDS011;35061;47.664;9.166;2023-11-21T05:33:02;1.12;;;0.80;;
18754;SDS011;35061;47.664;9.166;2023-11-21T05:35:32;0.93;;;0.70;;
18754;SDS011;35061;47.664;9.166;2023-11-21T05:38:00;1.30;;;0.82;;
18754;SDS011;35061;47.664;9.166;2023-11-21T05:40:32;1.15;;;0.70;;
18754;SDS011;35061;47.664;9.166;2023-11-21T05:43:04;1.15;;;0.93;;
18754;SDS011;35061;47.664;9.166;2023-11-21T05:45:33;2.58;;;0.90;;
18754;SDS011;35061;47.664;9.166;2023-11-21T05:48:02;2.12;;;1.42;;
18754;SDS011;35061;47.664;9.166;2023-11-21T05:50:30;1.45;;;0.88;;
18754;SDS011;35061;47.664;9.166;2023-11-21T05:53:00;2.85;;;1.10;;
18754;SDS011;35061;47.664;9.166;2023-11-21T05:55:31;2.10;;;1.12;;
18754;SDS011;35061;47.664;9.166;2023-11-21T05:57:59;5.03;;;1.15;;
18754;SDS011;35061;47.664;9.166;2023-11-21T06:00:29;3.42;;;0.88;;
18754;SDS011;35061;47.664;9.166;2023-11-21T06:02:59;5.40;;;1.85;;
18754;SDS011;35061;47.664;9.166;2023-11-21T06:05:27;0.90;;;0.80;;
18754;SDS011;35061;47.664;9.166;2023-11-21T06:07:58;1.80;;;1.02;;
18754;SDS011;35061;47.664;9.166;2023-11-21T06:10:31;1.48;;;0.95;;
18754;SDS011;35061;47.664;9.166;2023-11-21T06:12:59;2.62;;;1.12;;
18754;SDS011;35061;47.664;9.166;2023-11-21T06:15:29;4.30;;;1.30;;
18754;SDS011;35061;47.664;9.166;2023-11-21T06:17:57;3.05;;;1.15;;
18754;SDS011;35061;47.664;9.166;2023-11-21T06:20:26;1.45;;;1.17;;
18754;SDS011;35061;47.664;9.166;2023-11-21T06:22:54;2.78;;;0.82;;
18754;SDS011;35061;47.664;9.166;2023-11-21T06:25:31;1.25;;;0.80;;
18754;SDS011;35061;47.664;9.166;2023-11-21T06:28:06;2.25;;;0.80;;
18754;SDS011;35061;47.664;9.166;2023-11-21T06:30:34;2.10;;;0.80;;
18754;SDS011;35061;47.664;9.166;2023-11-21T06:33:04;1.73;;;0.90;;
18754;SDS011;35061;47.664;9.166;2023-11-21T06:35:35;1.33;;;0.90;;
18754;SDS011;35061;47.664;9.166;2023-11-21T06:38:03;1.95;;;1.00;;
18754;SDS011;35061;47.664;9.166;2023-11-21T06:40:31;0.93;;;0.70;;
18754;SDS011;35061;47.664;9.166;2023-11-21T06:43:01;1.25;;;0.93;;
18754;SDS011;35061;47.664;9.166;2023-11-21T06:45:29;3.17;;;0.98;;
18754;SDS011;35061;47.664;9.166;2023-11-21T06:47:57;1.75;;;0.65;;
18754;SDS011;35061;47.664;9.166;2023-11-21T06:50:25;1.37;;;1.08;;
18754;SDS011;35061;47.664;9.166;2023-11-21T06:52:53;2.78;;;0.90;;
18754;SDS011;35061;47.664;9.166;2023-11-21T06:55:21;3.72;;;1.20;;
18754;SDS011;35061;47.664;9.166;2023-11-21T06:57:49;2.22;;;1.12;;
18754;SDS011;35061;47.664;9.166;2023-11-21T07:00:19;1.37;;;1.00;;
18754;SDS011;35061;47.664;9.166;2023-11-21T07:02:47;2.25;;;0.73;;
18754;SDS011;35061;47.664;9.166;2023-11-21T07:05:15;2.85;;;1.10;;
18754;SDS011;35061;47.664;9.166;2023-11-21T07:07:48;1.58;;;0.85;;
18754;SDS011;35061;47.664;9.166;2023-11-21T07:10:17;1.55;;;0.98;;
18754;SDS011;35061;47.664;9.166;2023-11-21T07:12:45;2.78;;;0.95;;
18754;SDS011;35061;47.664;9.166;2023-11-21T07:15:13;2.15;;;1.10;;
18754;SDS011;35061;47.664;9.166;2023-11-21T07:17:41;1.55;;;1.20;;
18754;SDS011;35061;47.664;9.166;2023-11-21T07:20:09;1.90;;;1.00;;
18754;SDS011;35061;47.664;9.166;2023-11-21T07:22:38;2.58;;;1.10;;
18754;SDS011;35061;47.664;9.166;2023-11-21T07:25:07;2.15;;;1.17;;
18754;SDS011;35061;47.664;9.166;2023-11-21T07:27:37;2.78;;;1.20;;
18754;SDS011;35061;47.664;9.166;2023-11-21T07:30:05;1.10;;;0.88;;
18754;SDS011;35061;47.664;9.166;2023-11-21T07:32:35;2.70;;;1.00;;
18754;SDS011;35061;47.664;9.166;2023-11-21T07:35:03;2.85;;;0.70;;
18754;SDS011;35061;47.664;9.166;2023-11-21T07:37:32;2.90;;;1.20;;
18754;SDS011;35061;47.664;9.166;2023-11-21T07:40:00;1.52;;;1.00;;
18754;SDS011;35061;47.664;9.166;2023-11-21T07:42:28;1.35;;;0.73;;
18754;SDS011;35061;47.664;9.166;2023-11-21T07:44:56;0.70;;;0.70;;
18754;SDS011;35061;47.664;9.166;2023-11-21T07:47:24;2.72;;;1.95;;
18754;SDS011;35061;47.664;9.166;2023-11-21T07:49:54;6.45;;;2.42;;
18754;SDS011;35061;47.664;9.166;2023-11-21T07:52:23;2.05;;;1.40;;
18754;SDS011;35061;47.664;9.166;2023-11-21T07:54:51;4.07;;;1.45;;
18754;SDS011;35061;47.664;9.166;2023-11-21T07:57:19;4.12;;;1.12;;
18754;SDS011;35061;47.664;9.166;2023-11-21T07:59:47;4.18;;;2.10;;
18754;SDS011;35061;47.664;9.166;2023-11-21T08:02:15;5.03;;;1.83;;
18754;SDS011;35061;47.664;9.166;2023-11-21T08:04:45;2.03;;;1.02;;
18754;SDS011;35061;47.664;9.166;2023-11-21T08:07:13;1.35;;;1.20;;
18754;SDS011;35061;47.664;9.166;2023-11-21T08:09:41;3.05;;;1.45;;
18754;SDS011;35061;47.664;9.166;2023-11-21T08:12:09;6.00;;;1.17;;
18754;SDS011;35061;47.664;9.166;2023-11-21T08:14:38;2.72;;;1.37;;
18754;SDS011;35061;47.664;9.166;2023-11-21T08:17:06;2.58;;;1.25;;
18754;SDS011;35061;47.664;9.166;2023-11-21T08:19:34;2.20;;;1.20;;
18754;SDS011;35061;47.664;9.166;2023-11-21T08:22:03;3.70;;;1.02;;
18754;SDS011;35061;47.664;9.166;2023-11-21T08:24:31;0.88;;;0.80;;
18754;SDS011;35061;47.664;9.166;2023-11-21T08:26:59;2.33;;;1.10;;
18754;SDS011;35061;47.664;9.166;2023-11-21T08:29:27;1.87;;;0.90;;
18754;SDS011;35061;47.664;9.166;2023-11-21T08:31:55;1.50;;;0.98;;
18754;SDS011;35061;47.664;9.166;2023-11-21T08:34:24;2.12;;;0.80;;
18754;SDS011;35061;47.664;9.166;2023-11-21T08:36:52;2.15;;;1.02;;
18754;SDS011;35061;47.664;9.166;2023-11-21T08:39:20;1.10;;;1.00;;
18754;SDS011;35061;47.664;9.166;2023-11-21T08:41:51;2.08;;;1.00;;
18754;SDS011;35061;47.664;9.166;2023-11-21T08:44:19;1.73;;;1.30;;
18754;SDS011;35061;47.664;9.166;2023-11-21T08:46:47;1.08;;;0.85;;
18754;SDS011;35061;47.664;9.166;2023-11-21T08:49:15;1.23;;;0.93;;
18754;SDS011;35061;47.664;9.166;2023-11-21T08:51:44;2.78;;;1.17;;
18754;SDS011;35061;47.664;9.166;2023-11-21T08:54:13;4.68;;;1.67;;
18754;SDS011;35061;47.664;9.166;2023-11-21T08:56:43;2.37;;;1.12;;
18754;SDS011;35061;47.664;9.166;2023-11-21T08:59:11;3.05;;;1.40;;
18754;SDS011;35061;47.664;9.166;2023-11-21T09:01:42;1.62;;;1.30;;
18754;SDS011;35061;47.664;9.166;2023-11-21T09:04:10;2.47;;;1.62;;
18754;SDS011;35061;47.664;9.166;2023-11-21T09:06:41;1.40;;;1.10;;
18754;SDS011;35061;47.664;9.166;2023-11-21T09:09:09;1.60;;;1.10;;
18754;SDS011;35061;47.664;9.166;2023-11-21T09:11:37;1.77;;;1.40;;
18754;SDS011;35061;47.664;9.166;2023-11-21T09:14:05;2.95;;;1.00;;
18754;SDS011;35061;47.664;9.166;2023-11-21T09:16:33;1.20;;;1.10;;
18754;SDS011;35061;47.664;9.166;2023-11-21T09:19:02;2.92;;;1.40;;
18754;SDS011;35061;47.664;9.166;2023-11-21T09:21:32;0.77;;;0.70;;
18754;SDS011;35061;47.664;9.166;2023-11-21T09:24:02;1.73;;;0.90;;
18754;SDS011;35061;47.664;9.166;2023-11-21T09:26:30;2.05;;;1.20;;
18754;SDS011;35061;47.664;9.166;2023-11-21T09:28:58;1.70;;;1.33;;
18754;SDS011;35061;47.664;9.166;2023-11-21T09:31:26;2.65;;;1.23;;
18754;SDS011;35061;47.664;9.166;2023-11-21T09:33:55;1.75;;;1.12;;
18754;SDS011;35061;47.664;9.166;2023-11-21T09:36:23;2.08;;;1.35;;
18754;SDS011;35061;47.664;9.166;2023-11-21T09:38:55;1.12;;;1.00;;
18754;SDS011;35061;47.664;9.166;2023-11-21T09:41:26;2.30;;;1.05;;
18754;SDS011;35061;47.664;9.166;2023-11-21T09:44:04;0.98;;;0.80;;
18754;SDS011;35061;47.664;9.166;2023-11-21T09:46:40;1.58;;;1.12;;
18754;SDS011;35061;47.664;9.166;2023-11-21T09:49:10;3.60;;;1.60;;
18754;SDS011;35061;47.664;9.166;2023-11-21T09:51:43;1.58;;;1.30;;
18754;SDS011;35061;47.664;9.166;2023-11-21T09:54:13;1.77;;;1.27;;
18754;SDS011;35061;47.664;9.166;2023-11-21T09:56:43;2.92;;;1.52;;
18754;SDS011;35061;47.664;9.166;2023-11-21T09:59:13;1.37;;;1.15;;
18754;SDS011;35061;47.664;9.166;2023-11-21T10:01:43;3.37;;;1.10;;
18754;SDS011;35061;47.664;9.166;2023-11-21T10:04:11;1.27;;;1.15;;
18754;SDS011;35061;47.664;9.166;2023-11-21T10:06:39;2.70;;;1.62;;
18754;SDS011;35061;47.664;9.166;2023-11-21T10:09:13;2.95;;;1.50;;
18754;SDS011;35061;47.664;9.166;2023-11-21T10:11:42;3.70;;;1.12;;
18754;SDS011;35061;47.664;9.166;2023-11-21T10:14:11;2.75;;;0.93;;
18754;SDS011;35061;47.664;9.166;2023-11-21T10:16:41;2.97;;;0.95;;
18754;SDS011;35061;47.664;9.166;2023-11-21T10:19:12;1.83;;;1.17;;
18754;SDS011;35061;47.664;9.166;2023-11-21T10:21:43;1.75;;;1.17;;
18754;SDS011;35061;47.664;9.166;2023-11-21T10:24:11;1.33;;;1.05;;
18754;SDS011;35061;47.664;9.166;2023-11-21T10:26:40;4.00;;;1.27;;
18754;SDS011;35061;47.664;9.166;2023-11-21T10:29:19;1.58;;;1.08;;
18754;SDS011;35061;47.664;9.166;2023-11-21T10:31:51;3.53;;;1.25;;
18754;SDS011;35061;47.664;9.166;2023-11-21T10:34:22;1.33;;;1.12;;
18754;SDS011;35061;47.664;9.166;2023-11-21T10:36:50;2.33;;;1.00;;
18754;SDS011;35061;47.664;9.166;2023-11-21T10:39:19;1.30;;;0.88;;
18754;SDS011;35061;47.664;9.166;2023-11-21T10:41:51;1.62;;;1.30;;
18754;SDS011;35061;47.664;9.166;2023-11-21T10:44:19;1.55;;;1.20;;
18754;SDS011;35061;47.664;9.166;2023-11-21T10:46:56;1.70;;;1.30;;
18754;SDS011;35061;47.664;9.166;2023-11-21T10:49:25;2.00;;;1.00;;
18754;SDS011;35061;47.664;9.166;2023-11-21T10:51:54;1.35;;;1.15;;
18754;SDS011;35061;47.664;9.166;2023-11-21T10:54:24;2.25;;;0.80;;
18754;SDS011;35061;47.664;9.166;2023-11-21T10:56:56;0.75;;;0.73;;
18754;SDS011;35061;47.664;9.166;2023-11-21T10:59:29;1.50;;;0.90;;
18754;SDS011;35061;47.664;9.166;2023-11-21T11:02:01;1.25;;;1.00;;
18754;SDS011;35061;47.664;9.166;2023-11-21T11:04:48;2.25;;;1.10;;
18754;SDS011;35061;47.664;9.166;2023-11-21T11:07:16;3.20;;;0.95;;
18754;SDS011;35061;47.664;9.166;2023-11-21T11:09:45;1.83;;;1.10;;
18754;SDS011;35061;47.664;9.166;2023-11-21T11:12:14;1.20;;;0.93;;
18754;SDS011;35061;47.664;9.166;2023-11-21T11:14:44;1.80;;;1.00;;
18754;SDS011;35061;47.664;9.166;2023-11-21T11:17:13;0.70;;;0.70;;
18754;SDS011;35061;47.664;9.166;2023-11-21T11:19:41;1.50;;;1.12;;
18754;SDS011;35061;47.664;9.166;2023-11-21T11:27:54;1.52;;;0.60;;
18754;SDS011;35061;47.664;9.166;2023-11-21T11:39:02;0.57;;;0.57;;
18754;SDS011;35061;47.664;9.166;2023-11-21T11:41:31;1.87;;;0.75;;
18754;SDS011;35061;47.664;9.166;2023-11-21T11:44:02;1.08;;;0.70;;
18754;SDS011;35061;47.664;9.166;2023-11-21T11:46:41;1.37;;;0.70;;
18754;SDS011;35061;47.664;9.166;2023-11-21T11:49:23;0.60;;;0.55;;
18754;SDS011;35061;47.664;9.166;2023-11-21T11:55:00;0.60;;;0.60;;
18754;SDS011;35061;47.664;9.166;2023-11-21T11:57:32;0.70;;;0.60;;
18754;SDS011;35061;47.664;9.166;2023-11-21T12:02:44;0.50;;;0.50;;
18754;SDS011;35061;47.664;9.166;2023-11-21T12:05:15;0.70;;;0.50;;
18754;SDS011;35061;47.664;9.166;2023-11-21T12:10:15;0.70;;;0.70;;
18754;SDS011;35061;47.664;9.166;2023-11-21T12:12:48;1.23;;;0.65;;
18754;SDS011;35061;47.664;9.166;2023-11-21T12:15:18;0.75;;;0.75;;
18754;SDS011;35061;47.664;9.166;2023-11-21T12:17:47;0.60;;;0.60;;
18754;SDS011;35061;47.664;9.166;2023-11-21T12:20:18;0.80;;;0.60;;
18754;SDS011;35061;47.664;9.166;2023-11-21T12:22:48;0.82;;;0.70;;
18754;SDS011;35061;47.664;9.166;2023-11-21T12:25:19;0.77;;;0.50;;
18754;SDS011;35061;47.664;9.166;2023-11-21T12:27:50;2.53;;;1.15;;
18754;SDS011;35061;47.664;9.166;2023-11-21T12:30:20;0.90;;;0.62;;
18754;SDS011;35061;47.664;9.166;2023-11-21T12:33:03;1.50;;;0.47;;
18754;SDS011;35061;47.664;9.166;2023-11-21T12:35:33;0.50;;;0.50;;
18754;SDS011;35061;47.664;9.166;2023-11-21T12:38:03;0.52;;;0.52;;
18754;SDS011;35061;47.664;9.166;2023-11-21T12:40:32;0.70;;;0.70;;
18754;SDS011;35061;47.664;9.166;2023-11-21T12:43:00;1.27;;;1.17;;
18754;SDS011;35061;47.664;9.166;2023-11-21T12:45:31;1.58;;;0.90;;
18754;SDS011;35061;47.664;9.166;2023-11-21T12:48:03;0.40;;;0.40;;
18754;SDS011;35061;47.664;9.166;2023-11-21T12:50:35;0.60;;;0.60;;
18754;SDS011;35061;47.664;9.166;2023-11-21T12:53:06;0.70;;;0.70;;
18754;SDS011;35061;47.664;9.166;2023-11-21T12:55:40;1.37;;;0.70;;
18754;SDS011;35061;47.664;9.166;2023-11-21T12:58:09;1.17;;;0.55;;
18754;SDS011;35061;47.664;9.166;2023-11-21T13:00:44;0.57;;;0.57;;
18754;SDS011;35061;47.664;9.166;2023-11-21T13:03:14;1.15;;;0.50;;
18754;SDS011;35061;47.664;9.166;2023-11-21T13:05:46;0.50;;;0.50;;
18754;SDS011;35061;47.664;9.166;2023-11-21T13:08:19;0.60;;;0.60;;
18754;SDS011;35061;47.664;9.166;2023-11-21T13:10:52;0.70;;;0.70;;
18754;SDS011;35061;47.664;9.166;2023-11-21T13:13:24;0.88;;;0.47;;
18754;SDS011;35061;47.664;9.166;2023-11-21T13:18:33;0.52;;;0.52;;
18754;SDS011;35061;47.664;9.166;2023-11-21T13:21:02;0.40;;;0.40;;
18754;SDS011;35061;47.664;9.166;2023-11-21T13:23:41;0.90;;;0.60;;
18754;SDS011;35061;47.664;9.166;2023-11-21T13:26:10;0.70;;;0.50;;
18754;SDS011;35061;47.664;9.166;2023-11-21T13:28:39;0.68;;;0.60;;
18754;SDS011;35061;47.664;9.166;2023-11-21T13:31:13;0.73;;;0.60;;
18754;SDS011;35061;47.664;9.166;2023-11-21T13:33:54;0.80;;;0.77;;
18754;SDS011;35061;47.664;9.166;2023-11-21T13:36:32;1.75;;;0.80;;
18754;SDS011;35061;47.664;9.166;2023-11-21T13:39:03;0.77;;;0.65;;
18754;SDS011;35061;47.664;9.166;2023-11-21T13:41:42;1.40;;;0.90;;
18754;SDS011;35061;47.664;9.166;2023-11-21T13:44:11;1.10;;;0.70;;
18754;SDS011;35061;47.664;9.166;2023-11-21T13:46:55;0.77;;;0.77;;
18754;SDS011;35061;47.664;9.166;2023-11-21T13:49:25;1.25;;;0.70;;
18754;SDS011;35061;47.664;9.166;2023-11-21T13:51:54;0.80;;;0.70;;
18754;SDS011;35061;47.664;9.166;2023-11-21T13:54:22;1.62;;;0.93;;
18754;SDS011;35061;47.664;9.166;2023-11-21T13:56:52;1.10;;;0.90;;
18754;SDS011;35061;47.664;9.166;2023-11-21T13:59:20;1.00;;;1.00;;
18754;SDS011;35061;47.664;9.166;2023-11-21T14:01:51;1.70;;;0.77;;
18754;SDS011;35061;47.664;9.166;2023-11-21T14:04:19;0.75;;;0.75;;
18754;SDS011;35061;47.664;9.166;2023-11-21T14:07:02;0.70;;;0.70;;
18754;SDS011;35061;47.664;9.166;2023-11-21T14:09:48;0.70;;;0.70;;
18754;SDS011;35061;47.664;9.166;2023-11-21T14:12:18;2.25;;;0.70;;
18754;SDS011;35061;47.664;9.166;2023-11-21T14:14:46;1.45;;;1.02;;
18754;SDS011;35061;47.664;9.166;2023-11-21T14:17:15;1.20;;;1.10;;
18754;SDS011;35061;47.664;9.166;2023-11-21T14:19:43;2.00;;;1.40;;
18754;SDS011;35061;47.664;9.166;2023-11-21T14:22:11;1.60;;;1.25;;
18754;SDS011;35061;47.664;9.166;2023-11-21T14:24:39;1.33;;;1.17;;
18754;SDS011;35061;47.664;9.166;2023-11-21T14:27:14;1.60;;;1.25;;
18754;SDS011;35061;47.664;9.166;2023-11-21T14:29:45;1.12;;;1.00;;
18754;SDS011;35061;47.664;9.166;2023-11-21T14:32:13;3.12;;;1.20;;
18754;SDS011;35061;47.664;9.166;2023-11-21T14:34:41;2.58;;;1.70;;
18754;SDS011;35061;47.664;9.166;2023-11-21T14:37:13;1.40;;;1.27;;
18754;SDS011;35061;47.664;9.166;2023-11-21T14:39:41;2.03;;;1.20;;
18754;SDS011;35061;47.664;9.166;2023-11-21T14:42:13;1.77;;;1.30;;
18754;SDS011;35061;47.664;9.166;2023-11-21T14:44:43;2.75;;;1.40;;
18754;SDS011;35061;47.664;9.166;2023-11-21T14:47:11;1.42;;;1.30;;
18754;SDS011;35061;47.664;9.166;2023-11-21T14:49:43;1.40;;;1.12;;
18754;SDS011;35061;47.664;9.166;2023-11-21T14:52:21;2.53;;;1.12;;
18754;SDS011;35061;47.664;9.166;2023-11-21T14:55:03;1.65;;;1.27;;
18754;SDS011;35061;47.664;9.166;2023-11-21T14:57:49;2.03;;;0.90;;
18754;SDS011;35061;47.664;9.166;2023-11-21T15:00:18;1.62;;;1.52;;
18754;SDS011;35061;47.664;9.166;2023-11-21T15:03:05;5.20;;;2.70;;
18754;SDS011;35061;47.664;9.166;2023-11-21T15:05:34;3.12;;;2.72;;
18754;SDS011;35061;47.664;9.166;2023-11-21T15:08:03;4.12;;;2.70;;
18754;SDS011;35061;47.664;9.166;2023-11-21T15:10:51;2.47;;;2.20;;
18754;SDS011;35061;47.664;9.166;2023-11-21T15:13:23;2.47;;;1.98;;
18754;SDS011;35061;47.664;9.166;2023-11-21T15:15:53;4.20;;;2.05;;
18754;SDS011;35061;47.664;9.166;2023-11-21T15:18:22;2.85;;;2.33;;
18754;SDS011;35061;47.664;9.166;2023-11-21T15:20:50;2.50;;;2.30;;
18754;SDS011;35061;47.664;9.166;2023-11-21T15:23:18;4.35;;;2.28;;
18754;SDS011;35061;47.664;9.166;2023-11-21T15:25:46;2.35;;;1.90;;
18754;SDS011;35061;47.664;9.166;2023-11-21T15:28:15;2.25;;;2.05;;